sensor_id;sensor_type;location;lat;lon;timestamp;pressure;altitude;pressure_sealevel;temperature;humidity
60854;BME280;48554;50.766;2.900;2022-11-20T00:02:10;100692.56;;;17.57;55.48
60854;BME280;48554;50.766;2.900;2022-11-20T00:04:30;100689.72;;;17.63;55.34
60854;BME280;48554;50.766;2.900;2022-11-20T00:06:50;100690.59;;;17.69;55.24
60854;BME280;48554;50.766;2.900;2022-11-20T00:09:10;100686.34;;;17.73;55.12
60854;BME280;48554;50.766;2.900;2022-11-20T00:11:31;100692.00;;;17.76;55.08
60854;BME280;48554;50.766;2.900;2022-11-20T00:13:53;100692.38;;;17.80;55.11
60854;BME280;48554;50.766;2.900;2022-11-20T00:16:17;100694.94;;;17.75;55.10
60854;BME280;48554;50.766;2.900;2022-11-20T00:18:38;100685.22;;;17.69;55.42
60854;BME280;48554;50.766;2.900;2022-11-20T00:21:07;100688.88;;;17.63;55.58
60854;BME280;48554;50.766;2.900;2022-11-20T00:23:28;100685.09;;;17.59;55.48
60854;BME280;48554;50.766;2.900;2022-11-20T00:25:48;100681.28;;;17.54;55.57
60854;BME280;48554;50.766;2.900;2022-11-20T00:28:08;100683.91;;;17.49;55.58
60854;BME280;48554;50.766;2.900;2022-11-20T00:30:28;100678.63;;;17.54;55.62
60854;BME280;48554;50.766;2.900;2022-11-20T00:32:49;100692.88;;;17.60;55.47
60854;BME280;48554;50.766;2.900;2022-11-20T00:35:09;100691.91;;;17.66;55.40
60854;BME280;48554;50.766;2.900;2022-11-20T00:37:29;100697.06;;;17.73;55.26
60854;BME280;48554;50.766;2.900;2022-11-20T00:39:49;100692.81;;;17.77;55.10
60854;BME280;48554;50.766;2.900;2022-11-20T00:42:10;100688.63;;;17.81;54.91
60854;BME280;48554;50.766;2.900;2022-11-20T00:44:30;100701.50;;;17.84;55.04
60854;BME280;48554;50.766;2.900;2022-11-20T00:46:50;100700.63;;;17.79;55.17
60854;BME280;48554;50.766;2.900;2022-11-20T00:49:10;100686.59;;;17.71;55.27
60854;BME280;48554;50.766;2.900;2022-11-20T00:51:31;100691.91;;;17.66;55.45
60854;BME280;48554;50.766;2.900;2022-11-20T00:53:51;100689.97;;;17.62;55.61
60854;BME280;48554;50.766;2.900;2022-11-20T00:56:13;100695.25;;;17.57;55.48
60854;BME280;48554;50.766;2.900;2022-11-20T00:58:38;100695.19;;;17.51;55.55
60854;BME280;48554;50.766;2.900;2022-11-20T01:01:07;100693.38;;;17.57;55.70
60854;BME280;48554;50.766;2.900;2022-11-20T01:03:33;100705.22;;;17.61;55.44
60854;BME280;48554;50.766;2.900;2022-11-20T01:05:54;100712.03;;;17.69;55.22
60854;BME280;48554;50.766;2.900;2022-11-20T01:08:14;100705.66;;;17.75;55.13
60854;BME280;48554;50.766;2.900;2022-11-20T01:10:34;100699.81;;;17.78;55.08
60854;BME280;48554;50.766;2.900;2022-11-20T01:12:55;100699.53;;;17.80;54.84
60854;BME280;48554;50.766;2.900;2022-11-20T01:15:15;100692.66;;;17.84;54.88
60854;BME280;48554;50.766;2.900;2022-11-20T01:17:35;100692.38;;;17.80;55.07
60854;BME280;48554;50.766;2.900;2022-11-20T01:19:55;100700.28;;;17.75;55.16
60854;BME280;48554;50.766;2.900;2022-11-20T01:22:16;100693.50;;;17.67;55.33
60854;BME280;48554;50.766;2.900;2022-11-20T01:24:36;100687.84;;;17.64;55.33
60854;BME280;48554;50.766;2.900;2022-11-20T01:26:56;100683.22;;;17.59;55.37
60854;BME280;48554;50.766;2.900;2022-11-20T01:29:19;100687.22;;;17.57;55.29
60854;BME280;48554;50.766;2.900;2022-11-20T01:31:41;100683.47;;;17.58;55.44
60854;BME280;48554;50.766;2.900;2022-11-20T01:34:08;100684.09;;;17.65;55.26
60854;BME280;48554;50.766;2.900;2022-11-20T01:36:30;100682.31;;;17.70;55.06
60854;BME280;48554;50.766;2.900;2022-11-20T01:38:52;100676.75;;;17.77;54.92
60854;BME280;48554;50.766;2.900;2022-11-20T01:41:13;100677.91;;;17.81;54.84
60854;BME280;48554;50.766;2.900;2022-11-20T01:43:34;100667.47;;;17.85;54.84
60854;BME280;48554;50.766;2.900;2022-11-20T01:46:03;100670.47;;;17.88;54.71
60854;BME280;48554;50.766;2.900;2022-11-20T01:48:26;100664.50;;;17.81;54.97
60854;BME280;48554;50.766;2.900;2022-11-20T01:50:49;100661.72;;;17.76;55.15
60854;BME280;48554;50.766;2.900;2022-11-20T01:53:14;100661.91;;;17.69;55.13
60854;BME280;48554;50.766;2.900;2022-11-20T01:55:39;100660.53;;;17.67;55.10
60854;BME280;48554;50.766;2.900;2022-11-20T01:58:02;100660.50;;;17.62;55.33
60854;BME280;48554;50.766;2.900;2022-11-20T02:00:23;100662.59;;;17.60;55.22
60854;BME280;48554;50.766;2.900;2022-11-20T02:03:09;100661.06;;;17.64;55.17
60854;BME280;48554;50.766;2.900;2022-11-20T02:08:00;100651.81;;;17.76;54.94
60854;BME280;48554;50.766;2.900;2022-11-20T02:10:22;100662.38;;;17.83;54.77
60854;BME280;48554;50.766;2.900;2022-11-20T02:12:42;100659.19;;;17.86;54.58
60854;BME280;48554;50.766;2.900;2022-11-20T02:15:04;100671.03;;;17.90;54.46
60854;BME280;48554;50.766;2.900;2022-11-20T02:17:24;100673.16;;;17.88;54.63
60854;BME280;48554;50.766;2.900;2022-11-20T02:19:45;100675.78;;;17.83;54.69
60854;BME280;48554;50.766;2.900;2022-11-20T02:22:11;100662.28;;;17.78;54.97
60854;BME280;48554;50.766;2.900;2022-11-20T02:24:34;100655.00;;;17.73;54.98
60854;BME280;48554;50.766;2.900;2022-11-20T02:27:01;100659.81;;;17.71;55.01
60854;BME280;48554;50.766;2.900;2022-11-20T02:29:29;100651.19;;;17.69;55.13
60854;BME280;48554;50.766;2.900;2022-11-20T02:31:51;100648.22;;;17.66;55.03
60854;BME280;48554;50.766;2.900;2022-11-20T02:34:13;100650.16;;;17.70;55.00
60854;BME280;48554;50.766;2.900;2022-11-20T02:36:35;100648.91;;;17.78;54.78
60854;BME280;48554;50.766;2.900;2022-11-20T02:38:56;100645.00;;;17.86;54.49
60854;BME280;48554;50.766;2.900;2022-11-20T02:41:16;100631.88;;;17.89;54.41
60854;BME280;48554;50.766;2.900;2022-11-20T02:43:37;100635.44;;;17.95;54.42
60854;BME280;48554;50.766;2.900;2022-11-20T02:45:57;100626.66;;;18.00;54.36
60854;BME280;48554;50.766;2.900;2022-11-20T02:48:17;100628.44;;;17.94;54.16
60854;BME280;48554;50.766;2.900;2022-11-20T02:50:38;100622.78;;;17.90;54.42
60854;BME280;48554;50.766;2.900;2022-11-20T02:52:59;100609.34;;;17.85;54.36
60854;BME280;48554;50.766;2.900;2022-11-20T02:55:19;100614.53;;;17.75;54.86
60854;BME280;48554;50.766;2.900;2022-11-20T02:57:39;100612.09;;;17.68;54.96
60854;BME280;48554;50.766;2.900;2022-11-20T03:00:00;100615.50;;;17.64;55.00
60854;BME280;48554;50.766;2.900;2022-11-20T03:02:20;100615.25;;;17.65;54.88
60854;BME280;48554;50.766;2.900;2022-11-20T03:04:40;100617.16;;;17.70;54.84
60854;BME280;48554;50.766;2.900;2022-11-20T03:07:00;100602.78;;;17.76;54.49
60854;BME280;48554;50.766;2.900;2022-11-20T03:09:21;100593.44;;;17.79;54.44
60854;BME280;48554;50.766;2.900;2022-11-20T03:11:41;100587.34;;;17.83;54.24
60854;BME280;48554;50.766;2.900;2022-11-20T03:14:03;100584.16;;;17.86;54.21
60854;BME280;48554;50.766;2.900;2022-11-20T03:16:23;100587.38;;;17.88;54.06
60854;BME280;48554;50.766;2.900;2022-11-20T03:18:44;100582.53;;;17.85;54.47
60854;BME280;48554;50.766;2.900;2022-11-20T03:21:05;100578.41;;;17.77;54.42
60854;BME280;48554;50.766;2.900;2022-11-20T03:23:29;100574.31;;;17.70;54.88
60854;BME280;48554;50.766;2.900;2022-11-20T03:25:49;100571.56;;;17.65;54.89
60854;BME280;48554;50.766;2.900;2022-11-20T03:28:09;100576.88;;;17.60;55.00
60854;BME280;48554;50.766;2.900;2022-11-20T03:30:29;100579.28;;;17.56;54.93
60854;BME280;48554;50.766;2.900;2022-11-20T03:32:53;100587.59;;;17.60;54.51
60854;BME280;48554;50.766;2.900;2022-11-20T03:35:13;100596.50;;;17.65;54.51
60854;BME280;48554;50.766;2.900;2022-11-20T03:37:33;100599.25;;;17.70;54.33
60854;BME280;48554;50.766;2.900;2022-11-20T03:39:54;100582.09;;;17.71;54.05
60854;BME280;48554;50.766;2.900;2022-11-20T03:42:14;100574.34;;;17.75;53.94
60854;BME280;48554;50.766;2.900;2022-11-20T03:44:34;100576.53;;;17.78;53.97
60854;BME280;48554;50.766;2.900;2022-11-20T03:46:54;100576.06;;;17.81;53.85
60854;BME280;48554;50.766;2.900;2022-11-20T03:49:15;100562.06;;;17.79;53.99
60854;BME280;48554;50.766;2.900;2022-11-20T03:51:35;100556.66;;;17.74;54.43
60854;BME280;48554;50.766;2.900;2022-11-20T03:53:58;100551.22;;;17.64;54.65
60854;BME280;48554;50.766;2.900;2022-11-20T03:56:20;100543.13;;;17.59;54.78
60854;BME280;48554;50.766;2.900;2022-11-20T03:58:42;100544.69;;;17.54;54.64
60854;BME280;48554;50.766;2.900;2022-11-20T04:01:13;100545.19;;;17.51;54.74
60854;BME280;48554;50.766;2.900;2022-11-20T04:03:35;100536.88;;;17.53;54.47
60854;BME280;48554;50.766;2.900;2022-11-20T04:06:01;100533.22;;;17.59;54.47
60854;BME280;48554;50.766;2.900;2022-11-20T04:08:22;100534.06;;;17.65;54.10
60854;BME280;48554;50.766;2.900;2022-11-20T04:10:42;100531.38;;;17.65;53.91
60854;BME280;48554;50.766;2.900;2022-11-20T04:13:02;100524.47;;;17.69;53.80
60854;BME280;48554;50.766;2.900;2022-11-20T04:15:22;100529.81;;;17.69;53.76
60854;BME280;48554;50.766;2.900;2022-11-20T04:17:42;100531.44;;;17.70;53.82
60854;BME280;48554;50.766;2.900;2022-11-20T04:20:03;100528.28;;;17.73;53.75
60854;BME280;48554;50.766;2.900;2022-11-20T04:22:23;100525.00;;;17.66;54.25
60854;BME280;48554;50.766;2.900;2022-11-20T04:24:44;100533.22;;;17.59;54.45
60854;BME280;48554;50.766;2.900;2022-11-20T04:27:04;100534.22;;;17.53;54.59
60854;BME280;48554;50.766;2.900;2022-11-20T04:29:24;100529.63;;;17.48;54.58
60854;BME280;48554;50.766;2.900;2022-11-20T04:31:44;100524.75;;;17.45;54.65
60854;BME280;48554;50.766;2.900;2022-11-20T04:34:06;100517.81;;;17.44;54.20
60854;BME280;48554;50.766;2.900;2022-11-20T04:36:27;100515.16;;;17.49;54.25
60854;BME280;48554;50.766;2.900;2022-11-20T04:38:52;100522.47;;;17.54;54.14
60854;BME280;48554;50.766;2.900;2022-11-20T04:41:18;100514.72;;;17.58;53.90
60854;BME280;48554;50.766;2.900;2022-11-20T04:43:39;100514.47;;;17.59;53.89
60854;BME280;48554;50.766;2.900;2022-11-20T04:46:00;100514.75;;;17.63;53.53
60854;BME280;48554;50.766;2.900;2022-11-20T04:48:21;100515.59;;;17.63;53.91
60854;BME280;48554;50.766;2.900;2022-11-20T04:50:42;100513.44;;;17.65;53.69
60854;BME280;48554;50.766;2.900;2022-11-20T04:53:02;100509.41;;;17.63;53.96
60854;BME280;48554;50.766;2.900;2022-11-20T04:55:22;100507.75;;;17.57;54.23
60854;BME280;48554;50.766;2.900;2022-11-20T04:57:42;100498.03;;;17.50;54.36
60854;BME280;48554;50.766;2.900;2022-11-20T05:00:03;100501.22;;;17.47;54.47
60854;BME280;48554;50.766;2.900;2022-11-20T05:02:23;100495.81;;;17.42;54.53
60854;BME280;48554;50.766;2.900;2022-11-20T05:04:44;100497.38;;;17.38;54.39
60854;BME280;48554;50.766;2.900;2022-11-20T05:07:04;100501.16;;;17.42;54.13
60854;BME280;48554;50.766;2.900;2022-11-20T05:09:24;100502.28;;;17.46;53.99
60854;BME280;48554;50.766;2.900;2022-11-20T05:11:44;100494.53;;;17.50;53.95
60854;BME280;48554;50.766;2.900;2022-11-20T05:14:05;100492.44;;;17.52;53.82
60854;BME280;48554;50.766;2.900;2022-11-20T05:16:25;100496.47;;;17.54;53.70
60854;BME280;48554;50.766;2.900;2022-11-20T05:18:46;100497.84;;;17.57;53.84
60854;BME280;48554;50.766;2.900;2022-11-20T05:21:07;100502.94;;;17.59;53.63
60854;BME280;48554;50.766;2.900;2022-11-20T05:23:30;100506.44;;;17.59;53.60
60854;BME280;48554;50.766;2.900;2022-11-20T05:25:54;100507.22;;;17.60;53.73
60854;BME280;48554;50.766;2.900;2022-11-20T05:28:15;100514.16;;;17.55;54.01
60854;BME280;48554;50.766;2.900;2022-11-20T05:30:35;100500.19;;;17.48;54.28
60854;BME280;48554;50.766;2.900;2022-11-20T05:32:55;100501.72;;;17.44;54.25
60854;BME280;48554;50.766;2.900;2022-11-20T05:35:15;100505.97;;;17.40;54.49
60854;BME280;48554;50.766;2.900;2022-11-20T05:37:36;100494.97;;;17.37;54.40
60854;BME280;48554;50.766;2.900;2022-11-20T05:39:56;100495.75;;;17.37;54.11
60854;BME280;48554;50.766;2.900;2022-11-20T05:42:16;100489.38;;;17.43;53.99
60854;BME280;48554;50.766;2.900;2022-11-20T05:44:36;100487.81;;;17.47;53.92
60854;BME280;48554;50.766;2.900;2022-11-20T05:46:57;100490.00;;;17.50;53.61
60854;BME280;48554;50.766;2.900;2022-11-20T05:49:17;100489.50;;;17.53;53.70
60854;BME280;48554;50.766;2.900;2022-11-20T05:51:37;100488.44;;;17.54;53.53
60854;BME280;48554;50.766;2.900;2022-11-20T05:53:57;100491.69;;;17.57;53.59
60854;BME280;48554;50.766;2.900;2022-11-20T05:56:19;100478.84;;;17.59;53.45
60854;BME280;48554;50.766;2.900;2022-11-20T05:58:40;100485.81;;;17.60;53.52
60854;BME280;48554;50.766;2.900;2022-11-20T06:01:21;100492.19;;;17.53;53.85
60854;BME280;48554;50.766;2.900;2022-11-20T06:03:42;100486.78;;;17.48;54.16
60854;BME280;48554;50.766;2.900;2022-11-20T06:06:04;100483.22;;;17.43;54.15
60854;BME280;48554;50.766;2.900;2022-11-20T06:08:24;100476.78;;;17.39;54.14
60854;BME280;48554;50.766;2.900;2022-11-20T06:10:45;100476.47;;;17.35;53.97
60854;BME280;48554;50.766;2.900;2022-11-20T06:13:05;100475.16;;;17.38;54.02
60854;BME280;48554;50.766;2.900;2022-11-20T06:15:25;100464.75;;;17.41;53.92
60854;BME280;48554;50.766;2.900;2022-11-20T06:17:45;100455.94;;;17.46;53.77
60854;BME280;48554;50.766;2.900;2022-11-20T06:20:06;100462.69;;;17.48;53.67
60854;BME280;48554;50.766;2.900;2022-11-20T06:22:26;100462.16;;;17.51;53.71
60854;BME280;48554;50.766;2.900;2022-11-20T06:24:47;100450.38;;;17.52;53.69
60854;BME280;48554;50.766;2.900;2022-11-20T06:27:07;100451.50;;;17.57;53.50
60854;BME280;48554;50.766;2.900;2022-11-20T06:29:27;100441.03;;;17.55;53.67
60854;BME280;48554;50.766;2.900;2022-11-20T06:31:48;100447.75;;;17.58;53.52
60854;BME280;48554;50.766;2.900;2022-11-20T06:34:08;100448.25;;;17.54;53.78
60854;BME280;48554;50.766;2.900;2022-11-20T06:36:28;100449.28;;;17.48;53.98
60854;BME280;48554;50.766;2.900;2022-11-20T06:38:49;100444.13;;;17.42;54.08
60854;BME280;48554;50.766;2.900;2022-11-20T06:41:20;100446.25;;;17.40;54.14
60854;BME280;48554;50.766;2.900;2022-11-20T06:43:40;100445.41;;;17.34;54.13
60854;BME280;48554;50.766;2.900;2022-11-20T06:46:01;100441.88;;;17.33;53.89
60854;BME280;48554;50.766;2.900;2022-11-20T06:48:23;100438.47;;;17.38;53.71
60854;BME280;48554;50.766;2.900;2022-11-20T06:50:43;100438.50;;;17.43;53.85
60854;BME280;48554;50.766;2.900;2022-11-20T06:53:04;100435.56;;;17.45;53.62
60854;BME280;48554;50.766;2.900;2022-11-20T06:55:25;100432.38;;;17.48;53.93
60854;BME280;48554;50.766;2.900;2022-11-20T06:57:45;100431.34;;;17.49;53.51
60854;BME280;48554;50.766;2.900;2022-11-20T07:00:07;100424.66;;;17.51;53.49
60854;BME280;48554;50.766;2.900;2022-11-20T07:02:27;100418.22;;;17.52;53.39
60854;BME280;48554;50.766;2.900;2022-11-20T07:04:47;100418.22;;;17.52;53.43
60854;BME280;48554;50.766;2.900;2022-11-20T07:07:08;100417.69;;;17.50;53.73
60854;BME280;48554;50.766;2.900;2022-11-20T07:09:28;100421.38;;;17.44;53.92
60854;BME280;48554;50.766;2.900;2022-11-20T07:11:49;100421.06;;;17.41;54.08
60854;BME280;48554;50.766;2.900;2022-11-20T07:14:09;100430.94;;;17.35;54.02
60854;BME280;48554;50.766;2.900;2022-11-20T07:16:29;100432.78;;;17.29;54.08
60854;BME280;48554;50.766;2.900;2022-11-20T07:18:49;100430.91;;;17.30;53.96
60854;BME280;48554;50.766;2.900;2022-11-20T07:21:10;100432.00;;;17.34;53.81
60854;BME280;48554;50.766;2.900;2022-11-20T07:23:30;100427.75;;;17.38;53.71
60854;BME280;48554;50.766;2.900;2022-11-20T07:25:51;100424.59;;;17.41;53.66
60854;BME280;48554;50.766;2.900;2022-11-20T07:28:11;100428.34;;;17.45;53.64
60854;BME280;48554;50.766;2.900;2022-11-20T07:30:31;100414.16;;;17.45;53.67
60854;BME280;48554;50.766;2.900;2022-11-20T07:32:52;100407.72;;;17.46;53.63
60854;BME280;48554;50.766;2.900;2022-11-20T07:35:13;100417.16;;;17.48;53.46
60854;BME280;48554;50.766;2.900;2022-11-20T07:37:34;100418.75;;;17.49;53.67
60854;BME280;48554;50.766;2.900;2022-11-20T07:39:55;100413.91;;;17.46;53.91
60854;BME280;48554;50.766;2.900;2022-11-20T07:42:15;100406.31;;;17.38;53.99
60854;BME280;48554;50.766;2.900;2022-11-20T07:44:35;100406.03;;;17.35;54.10
60854;BME280;48554;50.766;2.900;2022-11-20T07:46:55;100411.59;;;17.28;54.15
60854;BME280;48554;50.766;2.900;2022-11-20T07:49:16;100398.16;;;17.23;54.26
60854;BME280;48554;50.766;2.900;2022-11-20T07:51:36;100399.75;;;17.24;54.01
60854;BME280;48554;50.766;2.900;2022-11-20T07:53:56;100403.31;;;17.29;54.01
60854;BME280;48554;50.766;2.900;2022-11-20T07:56:16;100406.28;;;17.33;53.75
60854;BME280;48554;50.766;2.900;2022-11-20T07:58:37;100403.09;;;17.36;53.71
60854;BME280;48554;50.766;2.900;2022-11-20T08:00:57;100399.94;;;17.39;53.74
60854;BME280;48554;50.766;2.900;2022-11-20T08:03:17;100388.94;;;17.41;53.75
60854;BME280;48554;50.766;2.900;2022-11-20T08:05:37;100386.00;;;17.42;53.67
60854;BME280;48554;50.766;2.900;2022-11-20T08:07:58;100384.13;;;17.43;53.63
60854;BME280;48554;50.766;2.900;2022-11-20T08:10:18;100386.56;;;17.44;53.56
60854;BME280;48554;50.766;2.900;2022-11-20T08:12:51;100392.72;;;17.45;53.62
60854;BME280;48554;50.766;2.900;2022-11-20T08:15:11;100385.97;;;17.37;53.69
60854;BME280;48554;50.766;2.900;2022-11-20T08:17:32;100384.63;;;17.35;54.00
60854;BME280;48554;50.766;2.900;2022-11-20T08:19:52;100379.47;;;17.28;53.93
60854;BME280;48554;50.766;2.900;2022-11-20T08:22:12;100372.72;;;17.20;54.30
60854;BME280;48554;50.766;2.900;2022-11-20T08:24:33;100378.31;;;17.19;54.11
60854;BME280;48554;50.766;2.900;2022-11-20T08:26:53;100369.50;;;17.23;53.95
60854;BME280;48554;50.766;2.900;2022-11-20T08:29:13;100377.84;;;17.27;53.87
60854;BME280;48554;50.766;2.900;2022-11-20T08:31:33;100372.78;;;17.30;53.94
60854;BME280;48554;50.766;2.900;2022-11-20T08:33:54;100363.44;;;17.33;53.87
60854;BME280;48554;50.766;2.900;2022-11-20T08:36:14;100372.84;;;17.36;53.84
60854;BME280;48554;50.766;2.900;2022-11-20T08:38:35;100368.03;;;17.38;53.71
60854;BME280;48554;50.766;2.900;2022-11-20T08:40:59;100358.97;;;17.39;53.70
60854;BME280;48554;50.766;2.900;2022-11-20T08:43:20;100359.75;;;17.39;53.77
60854;BME280;48554;50.766;2.900;2022-11-20T08:45:40;100349.03;;;17.39;53.70
60854;BME280;48554;50.766;2.900;2022-11-20T08:48:02;100354.97;;;17.41;53.77
60854;BME280;48554;50.766;2.900;2022-11-20T08:50:22;100355.41;;;17.33;53.96
60854;BME280;48554;50.766;2.900;2022-11-20T08:52:43;100345.72;;;17.27;54.32
60854;BME280;48554;50.766;2.900;2022-11-20T08:55:04;100339.50;;;17.21;54.24
60854;BME280;48554;50.766;2.900;2022-11-20T08:57:25;100341.09;;;17.17;54.26
60854;BME280;48554;50.766;2.900;2022-11-20T08:59:45;100335.19;;;17.15;54.21
60854;BME280;48554;50.766;2.900;2022-11-20T09:02:05;100337.66;;;17.22;53.89
60854;BME280;48554;50.766;2.900;2022-11-20T09:04:26;100337.16;;;17.25;54.02
60854;BME280;48554;50.766;2.900;2022-11-20T09:06:46;100335.59;;;17.29;53.74
60854;BME280;48554;50.766;2.900;2022-11-20T09:09:06;100330.75;;;17.31;53.67
60854;BME280;48554;50.766;2.900;2022-11-20T09:11:26;100331.06;;;17.35;53.82
60854;BME280;48554;50.766;2.900;2022-11-20T09:13:47;100327.31;;;17.36;53.56
60854;BME280;48554;50.766;2.900;2022-11-20T09:16:08;100324.38;;;17.37;53.60
60854;BME280;48554;50.766;2.900;2022-11-20T09:18:29;100317.41;;;17.36;53.49
60854;BME280;48554;50.766;2.900;2022-11-20T09:20:50;100312.59;;;17.38;53.38
60854;BME280;48554;50.766;2.900;2022-11-20T09:23:10;100312.59;;;17.38;53.62
60854;BME280;48554;50.766;2.900;2022-11-20T09:25:30;100314.19;;;17.34;53.93
60854;BME280;48554;50.766;2.900;2022-11-20T09:27:58;100301.53;;;17.24;53.98
60854;BME280;48554;50.766;2.900;2022-11-20T09:30:18;100299.06;;;17.18;54.15
60854;BME280;48554;50.766;2.900;2022-11-20T09:32:39;100304.94;;;17.15;54.10
60854;BME280;48554;50.766;2.900;2022-11-20T09:34:59;100307.63;;;17.15;53.97
60854;BME280;48554;50.766;2.900;2022-11-20T09:37:20;100301.75;;;17.18;53.88
60854;BME280;48554;50.766;2.900;2022-11-20T09:39:40;100297.50;;;17.22;53.73
60854;BME280;48554;50.766;2.900;2022-11-20T09:44:53;100287.94;;;17.36;53.68
60854;BME280;48554;50.766;2.900;2022-11-20T09:55:20;100261.81;;;17.48;53.34
60854;BME280;48554;50.766;2.900;2022-11-20T09:57:43;100256.97;;;17.50;53.45
60854;BME280;48554;50.766;2.900;2022-11-20T10:00:06;100260.97;;;17.48;53.43
60854;BME280;48554;50.766;2.900;2022-11-20T10:02:41;100271.41;;;17.44;53.66
60854;BME280;48554;50.766;2.900;2022-11-20T10:05:06;100266.03;;;17.39;53.76
60854;BME280;48554;50.766;2.900;2022-11-20T10:07:38;100258.22;;;17.32;53.81
60854;BME280;48554;50.766;2.900;2022-11-20T10:10:00;100264.59;;;17.26;54.08
60854;BME280;48554;50.766;2.900;2022-11-20T10:12:33;100256.88;;;17.30;54.04
60854;BME280;48554;50.766;2.900;2022-11-20T10:23:35;100243.84;;;17.44;53.58
60854;BME280;48554;50.766;2.900;2022-11-20T10:26:22;100244.13;;;17.47;53.82
60854;BME280;48554;50.766;2.900;2022-11-20T10:31:37;100234.22;;;17.53;54.00
60854;BME280;48554;50.766;2.900;2022-11-20T10:34:01;100223.78;;;17.51;54.23
60854;BME280;48554;50.766;2.900;2022-11-20T10:36:28;100217.63;;;17.51;54.46
60854;BME280;48554;50.766;2.900;2022-11-20T10:39:19;100215.16;;;17.39;54.49
60854;BME280;48554;50.766;2.900;2022-11-20T10:41:44;100206.03;;;17.35;54.54
60854;BME280;48554;50.766;2.900;2022-11-20T10:44:19;100197.72;;;17.31;54.71
60854;BME280;48554;50.766;2.900;2022-11-20T10:46:44;100196.38;;;17.34;54.91
60854;BME280;48554;50.766;2.900;2022-11-20T10:49:14;100199.34;;;17.38;55.16
60854;BME280;48554;50.766;2.900;2022-11-20T10:54:17;100189.44;;;17.43;55.63
60854;BME280;48554;50.766;2.900;2022-11-20T11:01:51;100176.13;;;17.48;55.81
60854;BME280;48554;50.766;2.900;2022-11-20T11:04:36;100177.72;;;17.49;55.80
60854;BME280;48554;50.766;2.900;2022-11-20T11:07:07;100167.78;;;17.45;55.29
60854;BME280;48554;50.766;2.900;2022-11-20T11:09:37;100170.13;;;17.36;55.21
60854;BME280;48554;50.766;2.900;2022-11-20T11:11:58;100161.25;;;17.25;55.22
60854;BME280;48554;50.766;2.900;2022-11-20T11:14:18;100153.19;;;17.20;55.35
60854;BME280;48554;50.766;2.900;2022-11-20T11:16:55;100144.84;;;17.17;55.42
60854;BME280;48554;50.766;2.900;2022-11-20T11:19:16;100142.75;;;17.24;55.80
60854;BME280;48554;50.766;2.900;2022-11-20T11:21:37;100131.56;;;17.27;55.52
60854;BME280;48554;50.766;2.900;2022-11-20T11:24:02;100123.00;;;17.30;55.71
60854;BME280;48554;50.766;2.900;2022-11-20T11:26:24;100127.03;;;17.32;55.76
60854;BME280;48554;50.766;2.900;2022-11-20T11:29:01;100121.41;;;17.34;55.56
60854;BME280;48554;50.766;2.900;2022-11-20T11:31:23;100119.25;;;17.36;55.38
60854;BME280;48554;50.766;2.900;2022-11-20T11:33:43;100110.19;;;17.37;55.49
60854;BME280;48554;50.766;2.900;2022-11-20T11:36:17;100118.75;;;17.39;55.47
60854;BME280;48554;50.766;2.900;2022-11-20T11:38:43;100101.06;;;17.38;55.35
60854;BME280;48554;50.766;2.900;2022-11-20T11:41:05;100097.34;;;17.39;55.33
60854;BME280;48554;50.766;2.900;2022-11-20T11:43:30;100086.88;;;17.38;55.14
60854;BME280;48554;50.766;2.900;2022-11-20T11:45:54;100079.59;;;17.28;55.22
60854;BME280;48554;50.766;2.900;2022-11-20T11:48:15;100072.09;;;17.20;55.15
60854;BME280;48554;50.766;2.900;2022-11-20T11:50:36;100052.78;;;17.13;55.58
60854;BME280;48554;50.766;2.900;2022-11-20T11:52:58;100054.38;;;17.08;55.46
60854;BME280;48554;50.766;2.900;2022-11-20T11:56:03;100043.13;;;17.11;55.60
60854;BME280;48554;50.766;2.900;2022-11-20T12:01:11;100038.09;;;17.25;55.23
60854;BME280;48554;50.766;2.900;2022-11-20T12:03:38;100027.16;;;17.27;55.22
60854;BME280;48554;50.766;2.900;2022-11-20T12:06:06;100012.44;;;17.29;55.09
60854;BME280;48554;50.766;2.900;2022-11-20T12:11:05;100003.63;;;17.34;54.91
60854;BME280;48554;50.766;2.900;2022-11-20T12:15:54;99988.88;;;17.37;54.81
60854;BME280;48554;50.766;2.900;2022-11-20T12:18:17;99987.53;;;17.34;54.85
60854;BME280;48554;50.766;2.900;2022-11-20T12:20:43;99984.56;;;17.25;55.00
60854;BME280;48554;50.766;2.900;2022-11-20T12:25:36;99973.03;;;17.09;55.31
60854;BME280;48554;50.766;2.900;2022-11-20T12:30:21;99969.53;;;17.14;55.12
60854;BME280;48554;50.766;2.900;2022-11-20T12:33:18;99965.81;;;17.20;55.09
60854;BME280;48554;50.766;2.900;2022-11-20T12:36:19;99967.72;;;17.25;54.81
60854;BME280;48554;50.766;2.900;2022-11-20T12:49:25;99969.31;;;17.36;54.63
60854;BME280;48554;50.766;2.900;2022-11-20T12:52:37;99972.81;;;17.31;54.77
60854;BME280;48554;50.766;2.900;2022-11-20T12:57:38;99970.09;;;17.16;54.95
60854;BME280;48554;50.766;2.900;2022-11-20T13:07:53;99958.88;;;17.29;54.70
60854;BME280;48554;50.766;2.900;2022-11-20T13:10:20;99962.38;;;17.35;54.64
60854;BME280;48554;50.766;2.900;2022-11-20T13:12:51;99949.78;;;17.41;54.61
60854;BME280;48554;50.766;2.900;2022-11-20T13:15:52;99957.81;;;17.46;54.51
60854;BME280;48554;50.766;2.900;2022-11-20T13:18:15;99966.16;;;17.49;54.43
60854;BME280;48554;50.766;2.900;2022-11-20T13:20:36;99971.75;;;17.48;54.49
60854;BME280;48554;50.766;2.900;2022-11-20T13:23:01;99975.22;;;17.43;54.52
60854;BME280;48554;50.766;2.900;2022-11-20T13:25:33;99969.34;;;17.41;54.75
60854;BME280;48554;50.766;2.900;2022-11-20T13:27:56;99972.00;;;17.36;54.82
60854;BME280;48554;50.766;2.900;2022-11-20T13:30:21;99974.41;;;17.32;54.88
60854;BME280;48554;50.766;2.900;2022-11-20T13:33:09;99971.75;;;17.32;54.88
60854;BME280;48554;50.766;2.900;2022-11-20T13:35:42;99969.31;;;17.36;54.76